createdAt,value
2023-05-12T00:00:08.292Z,1019.63
2023-05-12T00:01:13.095Z,1019.61
2023-05-12T00:02:16.976Z,1019.66
2023-05-12T00:03:21.624Z,1019.65
2023-05-12T00:04:23.371Z,1019.67
2023-05-12T00:05:23.718Z,1019.63
2023-05-12T00:06:31.095Z,1019.63
2023-05-12T00:07:35.497Z,1019.65
2023-05-12T00:08:37.499Z,1019.66
2023-05-12T00:09:39.959Z,1019.65
2023-05-12T00:10:41.933Z,1019.68
2023-05-12T00:11:49.756Z,1019.64
2023-05-12T00:12:53.809Z,1019.67
2023-05-12T00:13:55.829Z,1019.67
2023-05-12T00:15:02.992Z,1019.68
2023-05-12T00:16:07.848Z,1019.72
2023-05-12T00:17:11.895Z,1019.72
2023-05-12T00:18:16.194Z,1019.71
2023-05-12T00:19:20.978Z,1019.70
2023-05-12T00:20:22.762Z,1019.69
2023-05-12T00:21:27.641Z,1019.69
2023-05-12T00:22:34.973Z,1019.66
2023-05-12T00:23:37.617Z,1019.70
2023-05-12T00:24:41.044Z,1019.61
2023-05-12T00:25:41.627Z,1019.65
2023-05-12T00:26:46.928Z,1019.63
2023-05-12T00:27:51.948Z,1019.65
2023-05-12T00:28:56.647Z,1019.64
2023-05-12T00:30:01.634Z,1019.69
2023-05-12T00:31:10.644Z,1019.63
2023-05-12T00:32:08.940Z,1019.64
2023-05-12T00:33:11.353Z,1019.65
2023-05-12T00:34:11.130Z,1019.63
2023-05-12T00:35:15.869Z,1019.71
2023-05-12T00:36:20.792Z,1019.66
2023-05-12T00:37:21.071Z,1019.68
2023-05-12T00:38:20.236Z,1019.67
2023-05-12T00:39:27.527Z,1019.65
2023-05-12T00:40:29.678Z,1019.64
2023-05-12T00:41:38.450Z,1019.63
2023-05-12T00:42:38.496Z,1019.62
2023-05-12T00:43:34.955Z,1019.65
2023-05-12T00:44:39.652Z,1019.64
2023-05-12T00:45:47.242Z,1019.59
2023-05-12T00:46:51.809Z,1019.57
2023-05-12T00:47:55.706Z,1019.53
2023-05-12T00:49:00.229Z,1019.54
2023-05-12T00:50:05.029Z,1019.58
2023-05-12T00:51:08.955Z,1019.57
2023-05-12T00:52:17.268Z,1019.57
2023-05-12T00:53:12.852Z,1019.57
2023-05-12T00:54:20.289Z,1019.56
2023-05-12T00:55:20.826Z,1019.57
2023-05-12T00:56:22.644Z,1019.54
2023-05-12T00:57:25.351Z,1019.54
2023-05-12T00:58:27.156Z,1019.56
2023-05-12T00:59:31.916Z,1019.57
2023-05-12T01:00:32.699Z,1019.54
2023-05-12T01:01:32.197Z,1019.57
2023-05-12T01:02:42.429Z,1019.55
2023-05-12T01:03:40.271Z,1019.56
2023-05-12T01:04:42.160Z,1019.57
2023-05-12T01:05:44.853Z,1019.55
2023-05-12T01:06:46.764Z,1019.57
2023-05-12T01:07:54.120Z,1019.59
2023-05-12T01:08:58.669Z,1019.58
2023-05-12T01:10:03.270Z,1019.61
2023-05-12T01:11:07.071Z,1019.61
2023-05-12T01:12:11.687Z,1019.61
2023-05-12T01:13:16.455Z,1019.63
2023-05-12T01:14:20.289Z,1019.63
2023-05-12T01:15:25.253Z,1019.61
2023-05-12T01:16:29.307Z,1019.61
2023-05-12T01:17:34.455Z,1019.61
2023-05-12T01:18:38.492Z,1019.60
2023-05-12T01:19:42.979Z,1019.65
2023-05-12T01:20:47.331Z,1019.64
2023-05-12T01:21:49.317Z,1019.62
2023-05-12T01:22:56.492Z,1019.63
2023-05-12T01:24:01.220Z,1019.59
2023-05-12T01:25:02.307Z,1019.60
2023-05-12T01:26:07.068Z,1019.57
2023-05-12T01:27:10.914Z,1019.63
2023-05-12T01:28:15.517Z,1019.63
2023-05-12T01:29:19.831Z,1019.62
2023-05-12T01:30:22.037Z,1019.63
2023-05-12T01:31:21.905Z,1019.72
2023-05-12T01:32:29.063Z,1019.67
2023-05-12T01:33:33.492Z,1019.68
2023-05-12T01:34:36.222Z,1019.68
2023-05-12T01:35:38.131Z,1019.68
2023-05-12T01:36:45.785Z,1019.69
2023-05-12T01:37:50.258Z,1019.72
2023-05-12T01:38:52.182Z,1019.76
2023-05-12T01:39:52.273Z,1019.74
2023-05-12T01:40:52.565Z,1019.77
2023-05-12T01:41:55.471Z,1019.72
2023-05-12T01:42:59.700Z,1019.77
2023-05-12T01:44:01.937Z,1019.71
2023-05-12T01:45:06.093Z,1019.69
2023-05-12T01:46:09.223Z,1019.72
2023-05-12T01:47:09.799Z,1019.71
2023-05-12T01:48:20.273Z,1019.71
2023-05-12T01:49:10.962Z,1019.70
2023-05-12T01:50:20.840Z,1019.65
2023-05-12T01:51:12.144Z,1019.73
2023-05-12T01:52:21.265Z,1019.71
2023-05-12T01:53:17.785Z,1019.76
2023-05-12T01:54:22.689Z,1019.78
2023-05-12T01:55:23.227Z,1019.79
2023-05-12T01:56:31.274Z,1019.81
2023-05-12T01:57:33.017Z,1019.76
2023-05-12T01:58:37.966Z,1019.77
2023-05-12T01:59:42.363Z,1019.78
2023-05-12T02:00:39.314Z,1019.79
2023-05-12T02:01:41.323Z,1019.79
2023-05-12T02:02:43.026Z,1019.83
2023-05-12T02:03:48.408Z,1019.82
2023-05-12T02:04:48.000Z,1019.81
2023-05-12T02:05:52.722Z,1019.82
2023-05-12T02:06:57.641Z,1019.83
2023-05-12T02:08:02.649Z,1019.83
2023-05-12T02:09:05.079Z,1019.82
2023-05-12T02:10:13.260Z,1019.84
2023-05-12T02:11:09.946Z,1019.87
2023-05-12T02:12:17.272Z,1019.91
2023-05-12T02:13:21.596Z,1019.86
2023-05-12T02:14:23.734Z,1019.87
2023-05-12T02:15:32.269Z,1019.87
2023-05-12T02:16:31.901Z,1019.87
2023-05-12T02:17:36.033Z,1019.83
2023-05-12T02:18:40.559Z,1019.84
2023-05-12T02:19:45.029Z,1019.82
2023-05-12T02:20:46.740Z,1019.83
2023-05-12T02:21:46.999Z,1019.85
2023-05-12T02:22:54.091Z,1019.86
2023-05-12T02:23:58.918Z,1019.86
2023-05-12T02:24:57.202Z,1019.89
2023-05-12T02:26:02.259Z,1019.89
2023-05-12T02:27:09.608Z,1019.84
2023-05-12T02:28:13.953Z,1019.84
2023-05-12T02:29:15.877Z,1019.89
2023-05-12T02:30:25.872Z,1019.84
2023-05-12T02:31:25.439Z,1019.87
2023-05-12T02:32:30.358Z,1019.83
2023-05-12T02:33:37.869Z,1019.85
2023-05-12T02:34:39.626Z,1019.87
2023-05-12T02:35:46.331Z,1019.83
2023-05-12T02:36:46.400Z,1019.87
2023-05-12T02:37:51.324Z,1019.84
2023-05-12T02:38:54.274Z,1019.82
2023-05-12T02:39:58.664Z,1019.80
2023-05-12T02:41:00.379Z,1019.84
2023-05-12T02:42:07.950Z,1019.82
2023-05-12T02:43:10.737Z,1019.80
2023-05-12T02:44:13.475Z,1019.81
2023-05-12T02:45:15.421Z,1019.79
2023-05-12T02:46:23.054Z,1019.84
2023-05-12T02:47:27.116Z,1019.81
2023-05-12T02:48:34.591Z,1019.75
2023-05-12T02:49:32.650Z,1019.77
2023-05-12T02:50:37.187Z,1019.75
2023-05-12T02:51:41.711Z,1019.77
2023-05-12T02:52:43.771Z,1019.76
2023-05-12T02:53:43.416Z,1019.77
2023-05-12T02:54:43.506Z,1019.79
2023-05-12T02:55:45.138Z,1019.79
2023-05-12T02:56:45.808Z,1019.79
2023-05-12T02:57:46.162Z,1019.81
2023-05-12T02:58:54.015Z,1019.78
2023-05-12T02:59:58.788Z,1019.83
2023-05-12T03:01:10.569Z,1019.77
2023-05-12T03:02:08.401Z,1019.79
2023-05-12T03:03:08.045Z,1019.77
2023-05-12T03:04:12.150Z,1019.79
2023-05-12T03:05:14.101Z,1019.77
2023-05-12T03:06:17.020Z,1019.78
2023-05-12T03:07:22.346Z,1019.79
2023-05-12T03:08:22.819Z,1019.79
2023-05-12T03:09:25.520Z,1019.81
2023-05-12T03:10:31.555Z,1019.83
2023-05-12T03:11:29.709Z,1019.82
2023-05-12T03:12:32.067Z,1019.80
2023-05-12T03:13:36.359Z,1019.83
2023-05-12T03:14:38.254Z,1019.83
2023-05-12T03:15:41.089Z,1019.82
2023-05-12T03:16:46.319Z,1019.86
2023-05-12T03:17:50.896Z,1019.84
2023-05-12T03:18:55.697Z,1019.86
2023-05-12T03:20:00.333Z,1019.83
2023-05-12T03:21:06.451Z,1019.83
2023-05-12T03:22:12.241Z,1019.85
2023-05-12T03:23:05.829Z,1019.86
2023-05-12T03:24:13.443Z,1019.87
2023-05-12T03:25:13.455Z,1019.92
2023-05-12T03:26:15.945Z,1019.90
2023-05-12T03:27:17.902Z,1019.87
2023-05-12T03:28:17.987Z,1019.86
2023-05-12T03:29:19.837Z,1019.87
2023-05-12T03:30:21.076Z,1019.87
2023-05-12T03:31:21.324Z,1019.87
2023-05-12T03:32:21.603Z,1019.89
2023-05-12T03:33:23.325Z,1019.83
2023-05-12T03:34:26.581Z,1019.83
2023-05-12T03:35:36.554Z,1019.91
2023-05-12T03:36:38.352Z,1019.85
2023-05-12T03:37:37.531Z,1019.87
2023-05-12T03:38:42.709Z,1019.87
2023-05-12T03:39:43.815Z,1019.87
2023-05-12T03:40:44.875Z,1019.86
2023-05-12T03:41:45.819Z,1019.85
2023-05-12T03:42:45.503Z,1019.86
2023-05-12T03:44:00.410Z,1019.85
2023-05-12T03:44:46.447Z,1019.92
2023-05-12T03:45:46.961Z,1019.90
2023-05-12T03:46:51.234Z,1019.85
2023-05-12T03:47:51.832Z,1019.83
2023-05-12T03:48:52.833Z,1019.89
2023-05-12T03:49:53.369Z,1019.89
2023-05-12T03:50:53.656Z,1019.84
2023-05-12T03:51:53.970Z,1019.86
2023-05-12T03:53:02.864Z,1019.89
2023-05-12T03:54:11.351Z,1019.89
2023-05-12T03:55:06.954Z,1019.90
2023-05-12T03:56:09.031Z,1019.87
2023-05-12T03:57:09.833Z,1019.89
2023-05-12T04:00:14.440Z,1019.89
2023-05-12T04:01:20.887Z,1019.87
2023-05-12T04:02:20.466Z,1019.88
2023-05-12T04:03:21.579Z,1019.88
2023-05-12T04:04:23.563Z,1019.91
2023-05-12T04:05:25.756Z,1019.92
2023-05-12T04:06:31.819Z,1019.94
2023-05-12T04:07:35.105Z,1019.89
2023-05-12T04:08:32.118Z,1019.97
2023-05-12T04:09:44.807Z,1019.94
2023-05-12T04:10:41.521Z,1019.98
2023-05-12T04:11:52.375Z,1019.99
2023-05-12T04:12:48.883Z,1019.93
2023-05-12T04:13:54.251Z,1019.97
2023-05-12T04:14:54.536Z,1020.03
2023-05-12T04:15:59.340Z,1020.02
2023-05-12T04:17:04.011Z,1020.02
2023-05-12T04:18:09.025Z,1020.05
2023-05-12T04:19:09.358Z,1020.06
2023-05-12T04:20:09.608Z,1020.08
2023-05-12T04:21:18.468Z,1020.09
2023-05-12T04:22:19.218Z,1020.10
2023-05-12T04:23:12.733Z,1020.14
2023-05-12T04:24:18.091Z,1020.11
2023-05-12T04:25:16.539Z,1020.11
2023-05-12T04:26:24.053Z,1020.16
2023-05-12T04:27:27.896Z,1020.12
2023-05-12T04:28:34.362Z,1020.16
2023-05-12T04:29:30.277Z,1020.14
2023-05-12T04:30:39.484Z,1020.10
2023-05-12T04:31:39.075Z,1020.17
2023-05-12T04:32:43.749Z,1020.13
2023-05-12T04:33:48.562Z,1020.15
2023-05-12T04:34:52.217Z,1020.18
2023-05-12T04:35:54.191Z,1020.11
2023-05-12T04:37:01.284Z,1020.10
2023-05-12T04:38:03.242Z,1020.10
2023-05-12T04:39:10.587Z,1020.13
2023-05-12T04:40:15.449Z,1020.17
2023-05-12T04:41:19.505Z,1020.13
2023-05-12T04:42:24.085Z,1020.10
2023-05-12T04:44:34.156Z,1020.16
2023-05-12T04:45:34.558Z,1020.19
2023-05-12T04:46:34.514Z,1020.15
2023-05-12T04:47:34.061Z,1020.19
2023-05-12T04:48:39.159Z,1020.18
2023-05-12T04:49:38.600Z,1020.20
2023-05-12T04:50:40.961Z,1020.16
2023-05-12T04:51:45.056Z,1020.20
2023-05-12T04:52:49.398Z,1020.21
2023-05-12T04:53:54.183Z,1020.20
2023-05-12T04:54:58.335Z,1020.19
2023-05-12T04:56:02.762Z,1020.22
2023-05-12T04:56:59.376Z,1020.22
2023-05-12T04:58:09.741Z,1020.23
2023-05-12T04:59:09.168Z,1020.24
2023-05-12T05:00:14.019Z,1020.27
2023-05-12T05:01:15.702Z,1020.25
2023-05-12T05:02:23.103Z,1020.25
2023-05-12T05:03:28.528Z,1020.29
2023-05-12T05:04:25.102Z,1020.29
2023-05-12T05:05:27.544Z,1020.33
2023-05-12T05:06:32.575Z,1020.29
2023-05-12T05:07:40.203Z,1020.36
2023-05-12T05:08:37.129Z,1020.33
2023-05-12T05:09:37.229Z,1020.37
2023-05-12T05:10:43.923Z,1020.36
2023-05-12T05:11:46.459Z,1020.38
2023-05-12T05:12:48.423Z,1020.41
2023-05-12T05:13:54.893Z,1020.43
2023-05-12T05:14:58.048Z,1020.43
2023-05-12T05:16:08.493Z,1020.48
2023-05-12T05:17:05.800Z,1020.49
2023-05-12T05:18:07.282Z,1020.50
2023-05-12T05:19:19.230Z,1020.48
2023-05-12T05:20:15.068Z,1020.54
2023-05-12T05:21:15.172Z,1020.52
2023-05-12T05:22:19.749Z,1020.55
2023-05-12T05:23:23.476Z,1020.55
2023-05-12T05:24:25.668Z,1020.56
2023-05-12T05:25:26.242Z,1020.56
2023-05-12T05:26:33.608Z,1020.57
2023-05-12T05:27:35.337Z,1020.55
2023-05-12T05:28:40.166Z,1020.59
2023-05-12T05:29:44.940Z,1020.61
2023-05-12T05:30:53.467Z,1020.55
2023-05-12T05:31:50.195Z,1020.56
2023-05-12T05:32:57.672Z,1020.55
2023-05-12T05:34:02.009Z,1020.56
2023-05-12T05:35:04.167Z,1020.58
2023-05-12T05:36:14.364Z,1020.57
2023-05-12T05:37:14.078Z,1020.58
2023-05-12T05:38:18.798Z,1020.54
2023-05-12T05:39:19.118Z,1020.51
2023-05-12T05:40:22.491Z,1020.53
2023-05-12T05:41:23.109Z,1020.54
2023-05-12T05:42:26.916Z,1020.55
2023-05-12T05:43:28.893Z,1020.56
2023-05-12T05:44:28.947Z,1020.60
2023-05-12T05:45:33.899Z,1020.58
2023-05-12T05:46:41.283Z,1020.58
2023-05-12T05:47:45.412Z,1020.60
2023-05-12T05:48:49.716Z,1020.57
2023-05-12T05:49:54.213Z,1020.60
2023-05-12T05:50:56.213Z,1020.52
2023-05-12T05:52:04.006Z,1020.58
2023-05-12T05:53:08.102Z,1020.55
2023-05-12T05:54:12.651Z,1020.57
2023-05-12T05:55:13.827Z,1020.59
2023-05-12T05:56:18.167Z,1020.60
2023-05-12T05:57:22.521Z,1020.63
2023-05-12T05:58:26.798Z,1020.62
2023-05-12T05:59:31.286Z,1020.60
2023-05-12T06:00:35.775Z,1020.60
2023-05-12T06:01:40.844Z,1020.64
2023-05-12T06:02:42.544Z,1020.65
2023-05-12T06:03:50.202Z,1020.66
2023-05-12T06:04:54.468Z,1020.65
2023-05-12T06:05:56.175Z,1020.72
2023-05-12T06:07:03.979Z,1020.67
2023-05-12T06:08:05.931Z,1020.69
2023-05-12T06:09:06.914Z,1020.74
2023-05-12T06:10:08.825Z,1020.74
2023-05-12T06:11:13.420Z,1020.73
2023-05-12T06:12:17.518Z,1020.69
2023-05-12T06:13:22.242Z,1020.82
2023-05-12T06:14:27.098Z,1020.82
2023-05-12T06:15:31.907Z,1020.81
2023-05-12T06:16:35.800Z,1020.78
2023-05-12T06:17:39.141Z,1020.85
2023-05-12T06:18:41.488Z,1020.86
2023-05-12T06:19:45.976Z,1020.88
2023-05-12T06:20:50.327Z,1020.90
2023-05-12T06:21:52.046Z,1020.89
2023-05-12T06:22:59.348Z,1020.86
2023-05-12T06:24:01.296Z,1020.90
2023-05-12T06:25:08.478Z,1020.87
2023-05-12T06:26:09.050Z,1020.88
2023-05-12T06:27:13.129Z,1020.87
2023-05-12T06:28:19.473Z,1020.88
2023-05-12T06:29:17.575Z,1020.88
2023-05-12T06:30:21.916Z,1020.88
2023-05-12T06:31:26.039Z,1020.91
2023-05-12T06:32:30.351Z,1020.94
2023-05-12T06:33:34.948Z,1020.95
2023-05-12T06:34:39.539Z,1020.94
2023-05-12T06:35:43.554Z,1020.94
2023-05-12T06:36:48.148Z,1020.92
2023-05-12T06:37:52.728Z,1020.94
2023-05-12T06:38:54.225Z,1020.95
2023-05-12T06:40:01.590Z,1020.96
2023-05-12T06:41:05.684Z,1020.95
2023-05-12T06:42:09.224Z,1020.94
2023-05-12T06:43:14.581Z,1020.97
2023-05-12T06:44:18.938Z,1020.98
2023-05-12T06:45:23.055Z,1021.00
2023-05-12T06:46:27.926Z,1021.00
2023-05-12T06:47:31.976Z,1021.02
2023-05-12T06:48:36.012Z,1021.02
2023-05-12T06:49:40.356Z,1021.02
2023-05-12T06:50:44.693Z,1020.98
2023-05-12T06:51:49.051Z,1020.99
2023-05-12T06:52:53.414Z,1021.00
2023-05-12T06:53:57.729Z,1021.04
2023-05-12T06:55:02.603Z,1021.03
2023-05-12T06:56:02.433Z,1021.00
2023-05-12T06:57:06.516Z,1021.01
2023-05-12T06:58:11.374Z,1020.97
2023-05-12T06:59:15.442Z,1021.03
2023-05-12T07:00:20.301Z,1021.01
2023-05-12T07:01:24.674Z,1021.03
2023-05-12T07:02:29.061Z,1021.07
2023-05-12T07:03:33.326Z,1021.05
2023-05-12T07:04:37.681Z,1021.06
2023-05-12T07:05:42.359Z,1021.04
2023-05-12T07:06:46.629Z,1021.01
2023-05-12T07:07:51.218Z,1021.02
2023-05-12T07:08:55.015Z,1021.02
2023-05-12T07:09:59.354Z,1020.97
2023-05-12T07:11:03.703Z,1021.01
2023-05-12T07:12:09.026Z,1020.99
2023-05-12T07:13:08.161Z,1021.01
2023-05-12T07:14:12.493Z,1020.96
2023-05-12T07:15:16.833Z,1021.00
2023-05-12T07:16:21.207Z,1020.99
2023-05-12T07:17:26.257Z,1020.98
2023-05-12T07:18:31.985Z,1020.98
2023-05-12T07:19:35.074Z,1020.98
2023-05-12T07:20:39.423Z,1020.95
2023-05-12T07:21:43.487Z,1020.92
2023-05-12T07:22:48.176Z,1020.95
2023-05-12T07:23:52.192Z,1020.97
2023-05-12T07:24:57.235Z,1020.95
2023-05-12T07:25:57.081Z,1020.95
2023-05-12T07:27:01.161Z,1020.96
2023-05-12T07:28:06.308Z,1020.95
2023-05-12T07:29:12.869Z,1020.91
2023-05-12T07:30:15.242Z,1020.90
2023-05-12T07:31:19.631Z,1020.95
2023-05-12T07:32:23.925Z,1020.92
2023-05-12T07:33:28.005Z,1020.91
2023-05-12T07:34:32.378Z,1020.93
2023-05-12T07:35:34.325Z,1020.95
2023-05-12T07:36:41.423Z,1020.96
2023-05-12T07:37:46.002Z,1020.94
2023-05-12T07:38:50.618Z,1020.98
2023-05-12T07:39:54.429Z,1020.95
2023-05-12T07:40:58.782Z,1020.92
2023-05-12T07:42:03.365Z,1020.94
2023-05-12T07:43:07.733Z,1020.94
2023-05-12T07:44:12.056Z,1020.91
2023-05-12T07:45:16.201Z,1020.93
2023-05-12T07:46:21.067Z,1020.91
2023-05-12T07:47:25.363Z,1020.89
2023-05-12T07:48:29.393Z,1020.91
2023-05-12T07:49:33.526Z,1020.86
2023-05-12T07:50:38.138Z,1020.83
2023-05-12T07:51:42.192Z,1020.80
2023-05-12T07:52:46.783Z,1020.79
2023-05-12T07:53:48.710Z,1020.78
2023-05-12T07:54:55.783Z,1020.75
2023-05-12T07:55:59.227Z,1020.74
2023-05-12T07:57:03.821Z,1020.73
2023-05-12T07:58:10.948Z,1020.72
2023-05-12T07:59:20.489Z,1020.75
2023-05-12T08:00:14.991Z,1020.78
2023-05-12T08:01:16.038Z,1020.76
2023-05-12T08:02:18.805Z,1020.77
2023-05-12T08:03:19.845Z,1020.75
2023-05-12T08:04:24.926Z,1020.79
2023-05-12T08:05:34.022Z,1020.76
2023-05-12T08:06:34.309Z,1020.77
2023-05-12T08:07:46.042Z,1020.81
2023-05-12T08:08:42.246Z,1020.79
2023-05-12T08:09:43.897Z,1020.78
2023-05-12T08:10:46.335Z,1020.74
2023-05-12T08:11:51.596Z,1020.75
2023-05-12T08:12:56.210Z,1020.75
2023-05-12T08:13:57.411Z,1020.72
2023-05-12T08:15:05.620Z,1020.73
2023-05-12T08:16:07.583Z,1020.71
2023-05-12T08:17:09.699Z,1020.77
2023-05-12T08:18:12.431Z,1020.75
2023-05-12T08:19:14.164Z,1020.76
2023-05-12T08:20:22.357Z,1020.70
2023-05-12T08:21:21.934Z,1020.75
2023-05-12T08:22:26.451Z,1020.73
2023-05-12T08:23:30.372Z,1020.73
2023-05-12T08:24:32.568Z,1020.71
2023-05-12T08:25:36.820Z,1020.72
2023-05-12T08:26:42.213Z,1020.81
2023-05-12T08:27:44.099Z,1020.77
2023-05-12T08:28:48.991Z,1020.71
2023-05-12T08:29:49.077Z,1020.72
2023-05-12T08:30:56.512Z,1020.75
2023-05-12T08:32:00.996Z,1020.73
2023-05-12T08:33:07.783Z,1020.72
2023-05-12T08:34:10.918Z,1020.73
2023-05-12T08:35:06.745Z,1020.78
2023-05-12T08:36:08.652Z,1020.73
2023-05-12T08:37:09.170Z,1020.81
2023-05-12T08:38:17.449Z,1020.77
2023-05-12T08:39:14.350Z,1020.80
2023-05-12T08:40:20.845Z,1020.73
2023-05-12T08:41:20.212Z,1020.76
2023-05-12T08:42:28.125Z,1020.76
2023-05-12T08:43:32.684Z,1020.76
2023-05-12T08:44:39.464Z,1020.84
2023-05-12T08:45:36.285Z,1020.81
2023-05-12T08:46:38.814Z,1020.80
2023-05-12T08:47:43.701Z,1020.79
2023-05-12T08:48:48.449Z,1020.79
2023-05-12T08:49:52.380Z,1020.74
2023-05-12T08:50:56.922Z,1020.77
2023-05-12T08:51:58.274Z,1020.78
2023-05-12T08:52:57.421Z,1020.78
2023-05-12T08:53:59.952Z,1020.79
2023-05-12T08:55:04.490Z,1020.78
2023-05-12T08:57:10.407Z,1020.80
2023-05-12T08:58:11.064Z,1020.82
2023-05-12T08:59:18.444Z,1020.85
2023-05-12T09:00:23.040Z,1020.82
2023-05-12T09:01:26.661Z,1020.84
2023-05-12T09:02:44.989Z,1020.82
2023-05-12T09:03:36.020Z,1020.80
2023-05-12T09:04:34.286Z,1020.83
2023-05-12T09:05:39.037Z,1020.77
2023-05-12T09:06:40.581Z,1020.79
2023-05-12T09:07:47.628Z,1020.81
2023-05-12T09:08:51.963Z,1020.84
2023-05-12T09:09:59.874Z,1020.73
2023-05-12T09:10:58.938Z,1020.77
2023-05-12T09:13:14.800Z,1020.76
2023-05-12T09:14:13.934Z,1020.74
2023-05-12T09:15:16.230Z,1020.75
2023-05-12T09:16:23.687Z,1020.69
2023-05-12T09:17:28.637Z,1020.76
2023-05-12T09:18:32.183Z,1020.76
2023-05-12T09:19:36.776Z,1020.76
2023-05-12T09:20:41.120Z,1020.70
2023-05-12T09:21:45.460Z,1020.73
2023-05-12T09:22:49.521Z,1020.72
2023-05-12T09:23:54.115Z,1020.79
2023-05-12T09:24:58.204Z,1020.75
2023-05-12T09:26:03.191Z,1020.70
2023-05-12T09:27:07.156Z,1020.71
2023-05-12T09:28:10.456Z,1020.74
2023-05-12T09:29:27.923Z,1020.71
2023-05-12T09:30:20.005Z,1020.72
2023-05-12T09:31:24.330Z,1020.75
2023-05-12T09:32:28.933Z,1020.75
2023-05-12T09:33:33.190Z,1020.70
2023-05-12T09:34:37.538Z,1020.67
2023-05-12T09:35:41.904Z,1020.60
2023-05-12T09:36:45.946Z,1020.61
2023-05-12T09:37:50.280Z,1020.61
2023-05-12T09:38:54.882Z,1020.67
2023-05-12T09:39:58.948Z,1020.64
2023-05-12T09:41:03.297Z,1020.62
2023-05-12T09:42:07.620Z,1020.61
2023-05-12T09:43:07.999Z,1020.54
2023-05-12T09:44:12.087Z,1020.54
2023-05-12T09:45:16.710Z,1020.61
2023-05-12T09:46:21.109Z,1020.59
2023-05-12T09:47:25.430Z,1020.58
2023-05-12T09:48:29.485Z,1020.62
2023-05-12T09:49:34.094Z,1020.62
2023-05-12T09:50:47.435Z,1020.58
2023-05-12T09:51:42.539Z,1020.60
2023-05-12T09:52:47.338Z,1020.58
2023-05-12T09:53:51.423Z,1020.57
2023-05-12T09:54:56.260Z,1020.62
2023-05-12T09:55:57.735Z,1020.56
2023-05-12T09:57:04.842Z,1020.56
2023-05-12T09:58:09.471Z,1020.63
2023-05-12T09:59:13.480Z,1020.49
2023-05-12T10:00:33.252Z,1020.63
2023-05-12T10:01:23.770Z,1020.56
2023-05-12T10:02:26.828Z,1020.60
2023-05-12T10:03:31.063Z,1020.63
2023-05-12T10:04:35.684Z,1020.65
2023-05-12T10:05:39.726Z,1020.61
2023-05-12T10:06:44.044Z,1020.59
2023-05-12T10:07:45.963Z,1020.60
2023-05-12T10:08:53.331Z,1020.56
2023-05-12T10:09:57.635Z,1020.59
2023-05-12T10:11:01.968Z,1020.67
2023-05-12T10:12:06.033Z,1020.58
2023-05-12T10:13:06.402Z,1020.53
2023-05-12T10:14:10.766Z,1020.60
2023-05-12T10:15:15.050Z,1020.52
2023-05-12T10:16:19.664Z,1020.58
2023-05-12T10:17:23.474Z,1020.55
2023-05-12T10:18:27.823Z,1020.58
2023-05-12T10:19:32.148Z,1020.60
2023-05-12T10:20:36.473Z,1020.60
2023-05-12T10:21:40.810Z,1020.54
2023-05-12T10:22:45.146Z,1020.57
2023-05-12T10:23:49.474Z,1020.48
2023-05-12T10:24:54.069Z,1020.49
2023-05-12T10:25:58.156Z,1020.47
2023-05-12T10:27:02.760Z,1020.51
2023-05-12T10:28:07.103Z,1020.54
2023-05-12T10:29:11.180Z,1020.51
2023-05-12T10:30:15.886Z,1020.61
2023-05-12T10:31:20.155Z,1020.58
2023-05-12T10:32:24.535Z,1020.61
2023-05-12T10:33:29.077Z,1020.63
2023-05-12T10:34:33.168Z,1020.55
2023-05-12T10:35:36.754Z,1020.58
2023-05-12T10:36:39.562Z,1020.64
2023-05-12T10:37:44.095Z,1020.65
2023-05-12T10:38:45.309Z,1020.67
2023-05-12T10:39:52.942Z,1020.57
2023-05-12T10:40:54.401Z,1020.61
2023-05-12T10:42:01.494Z,1020.63
2023-05-12T10:43:00.926Z,1020.66
2023-05-12T10:44:06.000Z,1020.62
2023-05-12T10:45:10.630Z,1020.64
2023-05-12T10:46:15.496Z,1020.54
2023-05-12T10:47:19.580Z,1020.58
2023-05-12T10:48:23.707Z,1020.59
2023-05-12T10:49:28.033Z,1020.61
2023-05-12T10:50:32.143Z,1020.68
2023-05-12T10:51:37.181Z,1020.58
2023-05-12T10:52:40.291Z,1020.59
2023-05-12T10:53:50.173Z,1020.67
2023-05-12T10:54:44.178Z,1020.52
2023-05-12T10:55:47.233Z,1020.61
2023-05-12T10:56:51.371Z,1020.57
2023-05-12T10:57:55.582Z,1020.64
2023-05-12T10:59:00.144Z,1020.61
2023-05-12T11:00:05.057Z,1020.62
2023-05-12T11:01:09.277Z,1020.60
2023-05-12T11:02:13.606Z,1020.62
2023-05-12T11:03:18.543Z,1020.59
2023-05-12T11:04:21.812Z,1020.62
2023-05-12T11:05:27.159Z,1020.61
2023-05-12T11:06:30.769Z,1020.51
2023-05-12T11:07:35.254Z,1020.64
2023-05-12T11:08:37.938Z,1020.62
2023-05-12T11:09:40.473Z,1020.66
2023-05-12T11:10:36.921Z,1020.65
2023-05-12T11:11:48.606Z,1020.59
2023-05-12T11:12:52.367Z,1020.60
2023-05-12T11:13:50.009Z,1020.63
2023-05-12T11:14:52.331Z,1020.60
2023-05-12T11:15:54.262Z,1020.69
2023-05-12T11:17:01.754Z,1020.69
2023-05-12T11:18:03.606Z,1020.64
2023-05-12T11:19:08.470Z,1020.67
2023-05-12T11:20:16.598Z,1020.58
2023-05-12T11:21:23.948Z,1020.55
2023-05-12T11:22:18.425Z,1020.60
2023-05-12T11:23:18.675Z,1020.64
2023-05-12T11:24:21.112Z,1020.67
2023-05-12T11:25:26.248Z,1020.54
2023-05-12T11:26:32.052Z,1020.59
2023-05-12T11:27:32.237Z,1020.65
2023-05-12T11:28:34.124Z,1020.75
2023-05-12T11:29:36.203Z,1020.67
2023-05-12T11:30:39.756Z,1020.57
2023-05-12T11:31:40.064Z,1020.54
2023-05-12T11:32:45.104Z,1020.62
2023-05-12T11:34:01.305Z,1020.67
2023-05-12T11:34:53.950Z,1020.63
2023-05-12T11:35:59.752Z,1020.63
2023-05-12T11:36:59.433Z,1020.69
2023-05-12T11:37:59.727Z,1020.70
2023-05-12T11:39:01.750Z,1020.71
2023-05-12T11:40:05.339Z,1020.72
2023-05-12T11:41:04.204Z,1020.67
2023-05-12T11:42:12.887Z,1020.71
2023-05-12T11:43:09.809Z,1020.67
2023-05-12T11:44:12.259Z,1020.69
2023-05-12T11:45:16.849Z,1020.68
2023-05-12T11:46:20.995Z,1020.64
2023-05-12T11:47:22.958Z,1020.64
2023-05-12T11:48:31.021Z,1020.72
2023-05-12T11:49:35.021Z,1020.61
2023-05-12T11:50:41.418Z,1020.66
2023-05-12T11:51:39.545Z,1020.61
2023-05-12T11:52:41.455Z,1020.60
2023-05-12T11:53:41.608Z,1020.60
2023-05-12T11:54:52.426Z,1020.67
2023-05-12T11:55:48.857Z,1020.62
2023-05-12T11:56:55.937Z,1020.65
2023-05-12T11:58:00.277Z,1020.69
2023-05-12T11:59:04.889Z,1020.66
2023-05-12T12:00:11.461Z,1020.59
2023-05-12T12:01:06.852Z,1020.74
2023-05-12T12:02:16.550Z,1020.85
2023-05-12T12:03:13.050Z,1020.78
2023-05-12T12:04:15.132Z,1020.70
2023-05-12T12:05:17.189Z,1020.72
2023-05-12T12:06:22.004Z,1020.71
2023-05-12T12:07:29.366Z,1020.75
2023-05-12T12:08:31.124Z,1020.66
2023-05-12T12:09:35.979Z,1020.81
2023-05-12T12:10:40.906Z,1020.77
2023-05-12T12:11:45.792Z,1020.74
2023-05-12T12:12:46.859Z,1020.76
2023-05-12T12:13:53.733Z,1020.75
2023-05-12T12:14:56.420Z,1020.72
2023-05-12T12:16:01.016Z,1020.69
2023-05-12T12:17:02.706Z,1020.63
2023-05-12T12:18:10.089Z,1020.73
2023-05-12T12:19:11.945Z,1020.62
2023-05-12T12:20:23.283Z,1020.72
2023-05-12T12:21:20.429Z,1020.59
2023-05-12T12:22:24.806Z,1020.67
2023-05-12T12:23:26.477Z,1020.61
2023-05-12T12:24:31.377Z,1020.67
2023-05-12T12:25:38.540Z,1020.68
2023-05-12T12:26:43.144Z,1020.61
2023-05-12T12:27:47.700Z,1020.57
2023-05-12T12:28:50.417Z,1020.62
2023-05-12T12:29:55.205Z,1020.60
2023-05-12T12:30:56.693Z,1020.66
2023-05-12T12:32:03.959Z,1020.67
2023-05-12T12:33:08.765Z,1020.68
2023-05-12T12:34:13.106Z,1020.71
2023-05-12T12:35:14.829Z,1020.76
2023-05-12T12:36:18.662Z,1020.76
2023-05-12T12:37:21.778Z,1020.73
2023-05-12T12:38:21.436Z,1020.76
2023-05-12T12:39:26.163Z,1020.80
2023-05-12T12:40:33.714Z,1020.82
2023-05-12T12:41:38.274Z,1020.76
2023-05-12T12:42:35.740Z,1020.76
2023-05-12T12:43:47.167Z,1020.74
2023-05-12T12:44:46.632Z,1020.71
2023-05-12T12:45:46.857Z,1020.71
2023-05-12T12:46:49.444Z,1020.75
2023-05-12T12:47:51.107Z,1020.81
2023-05-12T12:48:56.040Z,1020.77
2023-05-12T12:50:04.400Z,1020.78
2023-05-12T12:51:01.119Z,1020.77
2023-05-12T12:52:08.946Z,1020.80
2023-05-12T12:53:12.739Z,1020.79